Time;durP1;ratioP1;P1;durP2;ratioP2;P2;SDS_P1;SDS_P2;PMS_P1;PMS_P2;Temp;Humidity;BMP_temperature;BMP_pressure;BME280_temperature;BME280_humidity;BME280_pressure;Samples;Min_cycle;Max_cycle;Signal;HPM_P1;HPM_P2
2023/01/02 00:00:32;;;;;;;32.30;29.50;;;;;;;;;;5008794;28;20037;-57
2023/01/02 00:02:58;;;;;;;30.80;28.05;;;;;;;;;;5006636;28;20120;-51
2023/01/02 00:05:24;;;;;;;30.35;27.35;;;;;;;;;;5007336;28;20471;-59
2023/01/02 00:07:50;;;;;;;31.10;28.10;;;;;;;;;;5010273;28;20029;-52
2023/01/02 00:10:16;;;;;;;29.85;26.98;;;;;;;;;;5011269;28;20414;-60
2023/01/02 00:12:42;;;;;;;29.52;26.52;;;;;;;;;;5011277;28;20087;-55
2023/01/02 00:15:08;;;;;;;28.00;25.27;;;;;;;;;;5010697;28;20017;-55
2023/01/02 00:17:34;;;;;;;26.10;23.30;;;;;;;;;;5026551;28;20029;-59
2023/01/02 00:20:01;;;;;;;28.38;25.48;;;;;;;;;;5025652;28;20486;-57
2023/01/02 00:22:26;;;;;;;27.10;24.50;;;;;;;;;;5039369;23;20485;-65
2023/01/02 00:24:52;;;;;;;26.67;22.70;;;;;;;;;;5045275;28;20025;-65
2023/01/02 00:27:18;;;;;;;32.72;22.20;;;;;;;;;;5030153;28;20100;-66
2023/01/02 00:29:45;;;;;;;25.02;20.38;;;;;;;;;;5045504;28;20120;-66
2023/01/02 00:32:11;;;;;;;23.60;21.20;;;;;;;;;;5030163;28;20031;-65
2023/01/02 00:34:36;;;;;;;23.63;21.13;;;;;;;;;;5029506;28;20528;-65
2023/01/02 00:37:02;;;;;;;24.45;21.83;;;;;;;;;;5030102;28;20035;-65
2023/01/02 00:39:28;;;;;;;25.10;22.35;;;;;;;;;;5028944;28;20033;-65
2023/01/02 00:41:54;;;;;;;24.92;22.13;;;;;;;;;;5031048;28;20036;-65
2023/01/02 00:44:20;;;;;;;25.30;22.83;;;;;;;;;;5029010;28;20116;-65
2023/01/02 00:46:46;;;;;;;24.48;22.10;;;;;;;;;;5029488;28;20033;-65
2023/01/02 00:49:12;;;;;;;26.38;23.48;;;;;;;;;;5030537;28;20025;-64
2023/01/02 00:51:38;;;;;;;23.15;20.85;;;;;;;;;;5030862;28;20422;-64
2023/01/02 00:54:04;;;;;;;25.23;21.38;;;;;;;;;;5030202;28;20026;-65
2023/01/02 00:56:30;;;;;;;25.63;22.98;;;;;;;;;;5030637;28;20036;-64
2023/01/02 00:58:56;;;;;;;25.58;22.98;;;;;;;;;;5030930;28;20021;-65
2023/01/02 01:01:22;;;;;;;23.77;21.30;;;;;;;;;;5030701;28;20045;-65
2023/01/02 01:03:48;;;;;;;25.63;23.13;;;;;;;;;;5029855;28;20021;-65
2023/01/02 01:06:14;;;;;;;28.52;24.70;;;;;;;;;;5029246;28;20029;-65
2023/01/02 01:08:40;;;;;;;27.35;24.42;;;;;;;;;;5030453;28;20026;-65
2023/01/02 01:11:11;;;;;;;26.30;23.70;;;;;;;;;;5030400;28;20053;-66
2023/01/02 01:13:38;;;;;;;26.77;24.13;;;;;;;;;;5029580;28;20626;-65
2023/01/02 01:16:05;;;;;;;26.23;23.73;;;;;;;;;;5030422;28;20441;-65
2023/01/02 01:18:31;;;;;;;27.02;23.95;;;;;;;;;;5030000;28;20056;-65
2023/01/02 01:20:57;;;;;;;26.63;23.85;;;;;;;;;;5030160;28;20431;-65
2023/01/02 01:23:23;;;;;;;25.38;23.00;;;;;;;;;;5029108;28;20093;-64
2023/01/02 01:25:49;;;;;;;26.00;23.45;;;;;;;;;;5030042;28;20541;-63
2023/01/02 01:28:15;;;;;;;26.15;23.50;;;;;;;;;;5029977;28;20072;-64
2023/01/02 01:30:41;;;;;;;26.02;23.38;;;;;;;;;;5030104;28;20144;-64
2023/01/02 01:33:07;;;;;;;24.55;22.02;;;;;;;;;;5033013;28;20070;-66
2023/01/02 01:35:33;;;;;;;24.17;21.65;;;;;;;;;;5034056;28;20022;-65
2023/01/02 01:37:59;;;;;;;24.65;22.20;;;;;;;;;;5033806;28;20025;-65
2023/01/02 01:40:25;;;;;;;25.25;21.63;;;;;;;;;;5032499;28;20508;-64
2023/01/02 01:42:51;;;;;;;24.70;20.83;;;;;;;;;;5032417;28;20029;-64
2023/01/02 01:45:17;;;;;;;23.85;18.85;;;;;;;;;;5033074;28;20086;-65
2023/01/02 01:47:49;;;;;;;21.05;18.80;;;;;;;;;;5033589;28;20617;-65
2023/01/02 01:50:27;;;;;;;21.40;17.70;;;;;;;;;;5033495;28;20465;-65
2023/01/02 01:52:58;;;;;;;21.38;17.38;;;;;;;;;;5033597;28;20362;-65
2023/01/02 01:55:28;;;;;;;21.85;16.90;;;;;;;;;;5031590;28;20120;-66
2023/01/02 01:58:06;;;;;;;24.00;17.77;;;;;;;;;;5032604;28;20524;-65
2023/01/02 02:00:32;;;;;;;23.23;17.35;;;;;;;;;;5033787;28;20025;-65
2023/01/02 02:03:04;;;;;;;23.45;15.38;;;;;;;;;;5033480;28;20030;-64
2023/01/02 02:05:30;;;;;;;24.63;14.52;;;;;;;;;;5032499;28;20026;-65
2023/01/02 02:08:02;;;;;;;22.35;14.93;;;;;;;;;;5033835;28;20069;-66
2023/01/02 02:10:28;;;;;;;20.08;14.82;;;;;;;;;;5032461;28;20022;-64
2023/01/02 02:12:54;;;;;;;21.90;15.18;;;;;;;;;;5033668;28;20024;-65
2023/01/02 02:15:22;;;;;;;19.35;13.57;;;;;;;;;;5032958;28;20363;-66
2023/01/02 02:17:47;;;;;;;17.95;13.43;;;;;;;;;;5032968;28;20036;-65
2023/01/02 02:20:23;;;;;;;22.52;14.10;;;;;;;;;;5031875;28;20112;-65
2023/01/02 02:23:08;;;;;;;21.13;19.00;;;;;;;;;;5031595;28;20083;-66
2023/01/02 02:25:52;;;;;;;21.90;18.58;;;;;;;;;;5033064;28;20053;-65
2023/01/02 02:28:18;;;;;;;28.20;25.08;;;;;;;;;;5032964;28;20073;-66
2023/01/02 02:30:52;;;;;;;32.17;29.55;;;;;;;;;;5031923;28;20116;-64
2023/01/02 02:33:24;;;;;;;32.80;30.10;;;;;;;;;;5030867;28;20033;-65
2023/01/02 02:35:59;;;;;;;30.10;27.52;;;;;;;;;;5032835;28;20452;-65
2023/01/02 02:38:46;;;;;;;33.08;30.13;;;;;;;;;;5031566;28;20036;-65
2023/01/02 02:41:15;;;;;;;31.27;28.08;;;;;;;;;;5032703;28;20107;-66
2023/01/02 02:43:58;;;;;;;26.83;24.55;;;;;;;;;;5031301;28;20026;-65
2023/01/02 02:46:24;;;;;;;28.27;25.55;;;;;;;;;;5032719;28;20049;-64
2023/01/02 02:48:50;;;;;;;36.40;32.92;;;;;;;;;;5032399;28;20092;-64
2023/01/02 02:51:36;;;;;;;33.47;30.67;;;;;;;;;;5032720;28;20092;-64
2023/01/02 02:54:05;;;;;;;34.50;31.45;;;;;;;;;;5031907;28;20024;-65
2023/01/02 02:56:31;;;;;;;33.53;30.50;;;;;;;;;;5032303;28;20021;-64
2023/01/02 02:58:57;;;;;;;37.00;33.72;;;;;;;;;;5032626;28;20108;-64
2023/01/02 03:01:28;;;;;;;44.53;41.15;;;;;;;;;;5031204;28;20021;-65
2023/01/02 03:03:54;;;;;;;43.58;40.38;;;;;;;;;;5031609;28;20025;-64
2023/01/02 03:06:38;;;;;;;48.17;44.33;;;;;;;;;;5030974;28;20030;-64
2023/01/02 03:09:18;;;;;;;51.53;47.92;;;;;;;;;;5031138;28;20041;-63
2023/01/02 03:11:48;;;;;;;46.80;43.25;;;;;;;;;;5032441;28;20029;-65
2023/01/02 03:14:24;;;;;;;45.38;42.03;;;;;;;;;;5031569;28;20107;-65
2023/01/02 03:16:54;;;;;;;41.92;38.83;;;;;;;;;;5032116;28;20028;-63
2023/01/02 03:19:22;;;;;;;45.47;42.03;;;;;;;;;;5031053;28;20080;-64
2023/01/02 03:21:48;;;;;;;;;;;;;;;;;;5031777;28;20532;-64
2023/01/02 03:24:16;;;;;;;46.47;43.25;;;;;;;;;;5031278;28;19909;-64
2023/01/02 03:26:46;;;;;;;45.92;42.33;;;;;;;;;;5031778;28;20049;-64
2023/01/02 03:29:15;;;;;;;49.58;45.83;;;;;;;;;;5030575;28;20083;-65
2023/01/02 03:31:44;;;;;;;48.38;44.25;;;;;;;;;;5031753;28;20104;-65
2023/01/02 03:34:13;;;;;;;46.72;43.17;;;;;;;;;;5031048;28;20258;-64
2023/01/02 03:36:40;;;;;;;46.28;42.58;;;;;;;;;;5031607;28;20435;-64
2023/01/02 03:39:09;;;;;;;44.03;40.63;;;;;;;;;;5030551;28;20390;-65
2023/01/02 03:41:35;;;;;;;;;;;;;;;;;;5032126;28;20363;-65
2023/01/02 03:44:02;;;;;;;46.17;42.13;;;;;;;;;;5030948;28;19915;-65
2023/01/02 03:46:38;;;;;;;43.08;39.55;;;;;;;;;;5031457;28;20081;-64
2023/01/02 03:49:07;;;;;;;43.35;39.70;;;;;;;;;;5031431;28;20025;-64
2023/01/02 03:51:35;;;;;;;40.72;37.38;;;;;;;;;;5031373;28;20049;-66
2023/01/02 03:54:02;;;;;;;36.63;33.63;;;;;;;;;;5029730;28;20473;-65
2023/01/02 03:56:41;;;;;;;35.67;32.63;;;;;;;;;;5029943;28;20425;-66
2023/01/02 03:59:07;;;;;;;36.72;33.47;;;;;;;;;;5030094;28;20080;-66
2023/01/02 04:01:38;;;;;;;34.83;31.67;;;;;;;;;;5031310;28;20054;-64
2023/01/02 04:04:14;;;;;;;34.10;31.02;;;;;;;;;;5030473;28;20033;-60
2023/01/02 04:06:42;;;;;;;33.88;31.20;;;;;;;;;;5030689;28;20036;-64
2023/01/02 04:09:13;;;;;;;34.08;31.10;;;;;;;;;;5031034;28;20017;-65
2023/01/02 04:11:42;;;;;;;34.83;31.85;;;;;;;;;;5030871;28;20021;-66
2023/01/02 04:14:17;;;;;;;36.25;33.20;;;;;;;;;;5029108;28;20025;-65
2023/01/02 04:16:44;;;;;;;39.88;36.58;;;;;;;;;;5030999;28;20237;-64
2023/01/02 04:19:32;;;;;;;38.42;35.33;;;;;;;;;;5029263;28;20091;-64
2023/01/02 04:22:00;;;;;;;39.75;36.42;;;;;;;;;;5030853;28;20022;-65
2023/01/02 04:24:28;;;;;;;40.83;37.87;;;;;;;;;;5028869;28;20074;-65
2023/01/02 04:27:00;;;;;;;46.38;42.85;;;;;;;;;;5030640;28;20303;-65
2023/01/02 04:29:26;;;;;;;43.90;40.50;;;;;;;;;;5029082;28;20022;-63
2023/01/02 04:32:04;;;;;;;43.65;40.35;;;;;;;;;;5030600;28;20018;-65
2023/01/02 04:34:32;;;;;;;44.50;41.13;;;;;;;;;;5028681;28;20074;-66
2023/01/02 04:36:59;;;;;;;44.75;40.95;;;;;;;;;;5030615;28;20144;-66
2023/01/02 04:39:26;;;;;;;45.03;41.53;;;;;;;;;;5029641;28;20034;-64
2023/01/02 04:41:52;;;;;;;44.63;40.92;;;;;;;;;;5029132;28;20386;-64
2023/01/02 04:44:18;;;;;;;48.13;44.13;;;;;;;;;;5029524;28;20382;-64
2023/01/02 04:46:44;;;;;;;43.47;39.83;;;;;;;;;;5030291;28;20029;-64
2023/01/02 04:49:10;;;;;;;43.70;39.97;;;;;;;;;;5029065;28;20030;-65
2023/01/02 04:51:36;;;;;;;41.60;38.45;;;;;;;;;;5029161;28;20052;-65
2023/01/02 04:54:02;;;;;;;40.53;37.25;;;;;;;;;;5029780;28;20504;-63
2023/01/02 04:56:28;;;;;;;42.00;38.22;;;;;;;;;;5030565;28;20021;-64
2023/01/02 04:58:54;;;;;;;40.33;36.85;;;;;;;;;;5029236;28;20034;-64
2023/01/02 05:01:20;;;;;;;44.92;41.53;;;;;;;;;;5030275;28;20386;-64
2023/01/02 05:03:48;;;;;;;41.97;38.60;;;;;;;;;;5029990;28;20025;-64
2023/01/02 05:06:14;;;;;;;47.20;43.17;;;;;;;;;;5031846;28;20100;-64
2023/01/02 05:08:40;;;;;;;44.17;40.65;;;;;;;;;;5034875;28;20048;-65
2023/01/02 05:11:06;;;;;;;44.45;40.90;;;;;;;;;;5034938;28;20108;-65
2023/01/02 05:13:32;;;;;;;44.95;41.67;;;;;;;;;;5033848;28;20022;-65
2023/01/02 05:15:58;;;;;;;44.42;41.13;;;;;;;;;;5035240;28;20537;-65
2023/01/02 05:18:24;;;;;;;45.92;42.53;;;;;;;;;;5035188;28;20033;-64
2023/01/02 05:20:50;;;;;;;45.13;41.65;;;;;;;;;;5035361;28;20191;-65
2023/01/02 05:26:01;;;;;;;41.03;38.03;;;;;;;;;;5034994;28;20099;-64
2023/01/02 05:28:27;;;;;;;41.55;38.25;;;;;;;;;;5032790;28;20464;-65
2023/01/02 05:30:53;;;;;;;38.75;35.40;;;;;;;;;;5032640;28;20037;-63
2023/01/02 05:33:19;;;;;;;39.10;36.00;;;;;;;;;;5033669;28;20132;-65
2023/01/02 05:35:45;;;;;;;38.67;35.40;;;;;;;;;;5034590;28;20132;-66
2023/01/02 05:38:11;;;;;;;39.08;36.17;;;;;;;;;;5034627;28;20033;-66
2023/01/02 05:40:36;;;;;;;38.70;35.40;;;;;;;;;;5034290;28;20111;-64
2023/01/02 05:43:02;;;;;;;40.65;37.05;;;;;;;;;;5032220;28;20402;-61
2023/01/02 05:45:29;;;;;;;38.83;35.63;;;;;;;;;;5032618;28;20075;-64
2023/01/02 05:47:54;;;;;;;40.30;36.80;;;;;;;;;;5034221;28;20437;-64
2023/01/02 05:50:20;;;;;;;37.30;34.20;;;;;;;;;;5034555;28;20071;-68
2023/01/02 05:52:46;;;;;;;36.65;33.55;;;;;;;;;;5034210;28;20091;-65
2023/01/02 05:55:12;;;;;;;36.10;33.00;;;;;;;;;;5031742;28;20100;-65
2023/01/02 05:57:38;;;;;;;34.78;31.60;;;;;;;;;;5034175;28;20112;-65
2023/01/02 06:00:05;;;;;;;36.28;33.10;;;;;;;;;;5034051;28;20057;-64
2023/01/02 06:02:31;;;;;;;37.70;34.60;;;;;;;;;;5034017;28;20029;-64
2023/01/02 06:04:56;;;;;;;36.38;33.28;;;;;;;;;;5033024;28;20469;-65
2023/01/02 06:07:22;;;;;;;37.00;33.65;;;;;;;;;;5033290;28;20037;-64
2023/01/02 06:09:48;;;;;;;35.67;32.58;;;;;;;;;;5033414;28;20537;-62
2023/01/02 06:12:14;;;;;;;38.00;34.97;;;;;;;;;;5032979;28;20025;-64
2023/01/02 06:14:40;;;;;;;36.38;33.22;;;;;;;;;;5032554;28;20033;-65
2023/01/02 06:17:06;;;;;;;35.25;32.15;;;;;;;;;;5031340;28;20025;-65
2023/01/02 06:19:32;;;;;;;36.25;32.88;;;;;;;;;;5032386;28;20477;-64
2023/01/02 06:24:34;;;;;;;33.75;30.95;;;;;;;;;;5054030;23;20050;-56
2023/01/02 06:27:00;;;;;;;33.88;30.83;;;;;;;;;;5049100;28;20042;-59
2023/01/02 06:29:26;;;;;;;32.95;30.17;;;;;;;;;;5033826;28;20100;-56
2023/01/02 06:31:52;;;;;;;34.47;31.08;;;;;;;;;;5033841;28;20028;-59
2023/01/02 06:34:18;;;;;;;32.28;29.58;;;;;;;;;;5048388;28;20075;-59
2023/01/02 06:36:44;;;;;;;32.28;29.48;;;;;;;;;;5033632;28;20021;-58
2023/01/02 06:39:10;;;;;;;35.20;32.03;;;;;;;;;;5033693;28;20021;-56
2023/01/02 06:41:36;;;;;;;33.92;31.20;;;;;;;;;;5033636;28;20108;-57
2023/01/02 06:44:01;;;;;;;36.55;33.65;;;;;;;;;;5032755;28;20032;-56
2023/01/02 06:46:27;;;;;;;35.03;32.08;;;;;;;;;;5033331;28;20033;-59
2023/01/02 06:48:53;;;;;;;37.47;34.40;;;;;;;;;;5033235;28;20017;-53
2023/01/02 06:51:21;;;;;;;36.45;33.38;;;;;;;;;;5033402;28;20543;-58
2023/01/02 06:53:47;;;;;;;36.40;33.50;;;;;;;;;;5032697;28;20021;-59
2023/01/02 06:56:14;;;;;;;36.13;33.08;;;;;;;;;;5033345;28;20108;-56
2023/01/02 06:58:41;;;;;;;36.50;33.57;;;;;;;;;;5033426;28;20053;-57
2023/01/02 07:01:07;;;;;;;39.20;35.55;;;;;;;;;;5033392;28;20049;-55
2023/01/02 07:03:33;;;;;;;36.90;33.70;;;;;;;;;;5032542;28;20402;-57
2023/01/02 07:06:06;;;;;;;38.03;34.50;;;;;;;;;;5033167;28;20082;-59
2023/01/02 07:08:32;;;;;;;37.17;33.80;;;;;;;;;;5032986;28;20033;-57
2023/01/02 07:11:09;;;;;;;34.95;32.10;;;;;;;;;;5033126;28;20030;-59
2023/01/02 07:13:35;;;;;;;35.38;32.38;;;;;;;;;;5032278;28;20137;-61
2023/01/02 07:16:02;;;;;;;35.35;32.28;;;;;;;;;;5032726;28;20116;-61
2023/01/02 07:18:28;;;;;;;34.13;31.23;;;;;;;;;;5048059;28;20041;-58
2023/01/02 07:20:54;;;;;;;33.35;30.42;;;;;;;;;;5032907;28;20529;-57
2023/01/02 07:23:20;;;;;;;33.95;31.00;;;;;;;;;;5020824;28;20112;-59
2023/01/02 07:25:51;;;;;;;32.20;29.48;;;;;;;;;;5030186;28;20378;-58
2023/01/02 07:28:17;;;;;;;30.75;28.02;;;;;;;;;;5012628;28;20490;-60
2023/01/02 07:30:43;;;;;;;25.70;23.13;;;;;;;;;;5020127;28;20108;-60
2023/01/02 07:33:09;;;;;;;24.27;21.98;;;;;;;;;;5031984;28;20033;-57
2023/01/02 07:35:35;;;;;;;24.63;22.23;;;;;;;;;;5032474;28;20037;-57
2023/01/02 07:38:01;;;;;;;24.48;22.10;;;;;;;;;;5032410;28;20124;-59
2023/01/02 07:40:27;;;;;;;25.73;23.23;;;;;;;;;;5014658;28;20112;-55
2023/01/02 07:42:53;;;;;;;23.95;21.65;;;;;;;;;;5012317;28;20030;-58
2023/01/02 07:45:19;;;;;;;27.13;22.17;;;;;;;;;;5011665;28;20030;-58
2023/01/02 07:47:45;;;;;;;24.85;21.80;;;;;;;;;;5012501;28;20452;-57
2023/01/02 07:50:11;;;;;;;25.23;22.83;;;;;;;;;;5012304;28;20053;-57
2023/01/02 07:52:37;;;;;;;24.88;22.48;;;;;;;;;;5012266;28;20570;-56
2023/01/02 07:55:03;;;;;;;25.38;22.80;;;;;;;;;;5047432;28;20108;-57
2023/01/02 07:57:30;;;;;;;26.05;23.63;;;;;;;;;;5034447;28;20053;-58
2023/01/02 07:59:56;;;;;;;28.58;25.80;;;;;;;;;;5031872;28;20021;-58
2023/01/02 08:02:22;;;;;;;34.17;31.33;;;;;;;;;;5031805;28;20227;-55
2023/01/02 08:04:48;;;;;;;36.92;34.03;;;;;;;;;;5031271;28;20061;-57
2023/01/02 08:07:14;;;;;;;35.20;32.28;;;;;;;;;;5031681;28;20568;-56
2023/01/02 08:09:40;;;;;;;34.75;32.15;;;;;;;;;;5031899;28;20109;-55
2023/01/02 08:12:06;;;;;;;37.90;34.58;;;;;;;;;;5031886;28;20037;-55
2023/01/02 08:14:32;;;;;;;36.17;33.33;;;;;;;;;;5031059;28;20059;-56
2023/01/02 08:16:58;;;;;;;33.45;30.80;;;;;;;;;;5031538;28;20025;-57
2023/01/02 08:19:24;;;;;;;33.80;31.27;;;;;;;;;;5031501;28;20025;-56
2023/01/02 08:21:50;;;;;;;35.78;32.88;;;;;;;;;;5031705;28;20029;-55
2023/01/02 08:24:16;;;;;;;35.47;32.67;;;;;;;;;;5030627;28;20063;-55
2023/01/02 08:26:42;;;;;;;35.55;32.75;;;;;;;;;;5031436;28;20032;-60
2023/01/02 08:29:08;;;;;;;37.65;34.75;;;;;;;;;;5031743;28;20029;-60
2023/01/02 08:31:34;;;;;;;39.03;35.88;;;;;;;;;;5030098;28;20022;-59
2023/01/02 08:34:00;;;;;;;35.33;32.28;;;;;;;;;;5031184;28;20027;-64
2023/01/02 08:36:26;;;;;;;36.47;33.47;;;;;;;;;;5030501;28;20105;-62
2023/01/02 08:38:52;;;;;;;33.88;31.17;;;;;;;;;;5031463;28;20129;-63
2023/01/02 08:41:35;;;;;;;36.85;33.88;;;;;;;;;;5031060;28;20104;-62
2023/01/02 08:44:01;;;;;;;37.60;34.30;;;;;;;;;;5030580;28;20062;-61
2023/01/02 08:46:27;;;;;;;35.15;32.13;;;;;;;;;;5031337;28;20482;-60
2023/01/02 08:48:53;;;;;;;34.65;31.73;;;;;;;;;;5031348;28;20431;-62
2023/01/02 08:51:20;;;;;;;33.03;30.50;;;;;;;;;;5031553;28;20017;-65
2023/01/02 08:53:46;;;;;;;34.35;31.00;;;;;;;;;;5029470;28;20076;-64
2023/01/02 08:56:18;;;;;;;34.78;31.67;;;;;;;;;;5030268;28;20167;-62
2023/01/02 08:58:44;;;;;;;36.22;33.05;;;;;;;;;;5031489;28;20026;-65
2023/01/02 09:01:10;;;;;;;38.25;35.30;;;;;;;;;;5031334;28;20026;-64
2023/01/02 09:03:49;;;;;;;41.75;38.55;;;;;;;;;;5031045;28;20043;-69
2023/01/02 09:06:15;;;;;;;41.67;38.47;;;;;;;;;;5031713;28;20616;-63
2023/01/02 09:08:41;;;;;;;41.53;38.45;;;;;;;;;;5031322;28;20075;-62
2023/01/02 09:11:14;;;;;;;42.20;39.00;;;;;;;;;;5031266;28;20115;-63
2023/01/02 09:13:40;;;;;;;44.67;41.25;;;;;;;;;;5029540;28;20065;-62
2023/01/02 09:16:06;;;;;;;42.95;39.67;;;;;;;;;;5031153;28;20022;-63
2023/01/02 09:18:32;;;;;;;41.50;38.28;;;;;;;;;;5030741;28;20037;-63
2023/01/02 09:20:58;;;;;;;47.53;43.90;;;;;;;;;;5029966;28;20032;-61
2023/01/02 09:23:24;;;;;;;47.20;43.80;;;;;;;;;;5026406;28;20125;-61
2023/01/02 09:25:50;;;;;;;45.28;41.75;;;;;;;;;;5022195;28;20026;-63
2023/01/02 09:28:16;;;;;;;49.22;45.13;;;;;;;;;;5018719;28;20022;-63
2023/01/02 09:30:42;;;;;;;46.22;42.92;;;;;;;;;;5018532;28;20480;-64
2023/01/02 09:33:08;;;;;;;45.97;42.70;;;;;;;;;;5017867;28;20022;-62
2023/01/02 09:35:34;;;;;;;36.90;34.20;;;;;;;;;;5027604;28;20101;-61
2023/01/02 09:38:01;;;;;;;28.27;26.08;;;;;;;;;;5020887;28;20030;-62
2023/01/02 09:40:28;;;;;;;25.40;23.30;;;;;;;;;;5020938;28;20490;-62
2023/01/02 09:42:54;;;;;;;24.90;22.70;;;;;;;;;;5019590;28;20058;-64
2023/01/02 09:45:21;;;;;;;24.27;22.27;;;;;;;;;;5020774;28;20045;-62
2023/01/02 09:47:47;;;;;;;23.40;21.30;;;;;;;;;;5015966;28;20026;-62
2023/01/02 09:50:25;;;;;;;23.33;21.33;;;;;;;;;;5011142;28;20034;-59
2023/01/02 09:53:00;;;;;;;22.70;20.70;;;;;;;;;;5012810;28;20025;-58
2023/01/02 09:55:42;;;;;;;23.55;21.55;;;;;;;;;;5014407;28;20030;-57
2023/01/02 09:58:10;;;;;;;22.73;20.73;;;;;;;;;;5012320;28;20028;-59
2023/01/02 10:00:37;;;;;;;23.65;21.65;;;;;;;;;;5012827;28;20054;-55
2023/01/02 10:03:03;;;;;;;24.13;22.13;;;;;;;;;;5014127;28;20057;-54
2023/01/02 10:05:44;;;;;;;23.77;21.77;;;;;;;;;;5014456;28;20026;-56
2023/01/02 10:08:20;;;;;;;24.13;22.13;;;;;;;;;;5014386;28;20079;-54
2023/01/02 10:10:50;;;;;;;23.23;21.13;;;;;;;;;;5013085;28;20471;-56
2023/01/02 10:13:22;;;;;;;22.75;20.75;;;;;;;;;;5013428;28;20026;-53
2023/01/02 10:15:50;;;;;;;22.10;20.10;;;;;;;;;;5014110;28;20026;-53
2023/01/02 10:18:31;;;;;;;22.83;20.83;;;;;;;;;;5014844;28;20347;-55
2023/01/02 10:21:03;;;;;;;22.27;20.27;;;;;;;;;;5014341;28;20110;-55
2023/01/02 10:23:40;;;;;;;19.58;17.63;;;;;;;;;;5013418;28;20040;-50
2023/01/02 10:26:09;;;;;;;18.85;17.05;;;;;;;;;;5033569;28;20033;-49
2023/01/02 10:28:35;;;;;;;18.60;16.73;;;;;;;;;;5032493;28;20052;-54
2023/01/02 10:31:04;;;;;;;19.92;16.73;;;;;;;;;;5032670;28;20469;-52
2023/01/02 10:33:50;;;;;;;18.00;16.10;;;;;;;;;;5032921;28;20021;-53
2023/01/02 10:36:25;;;;;;;17.85;15.95;;;;;;;;;;5034481;28;20477;-56
2023/01/02 10:38:51;;;;;;;18.42;16.52;;;;;;;;;;5053533;28;20047;-60
2023/01/02 10:41:18;;;;;;;18.40;16.45;;;;;;;;;;5053445;28;20130;-58
2023/01/02 10:43:47;;;;;;;18.30;16.40;;;;;;;;;;5052652;28;20167;-58
2023/01/02 10:46:13;;;;;;;17.80;15.90;;;;;;;;;;5053533;28;20595;-58
2023/01/02 10:48:42;;;;;;;17.83;15.20;;;;;;;;;;5052483;28;20049;-59
2023/01/02 10:51:12;;;;;;;19.13;16.05;;;;;;;;;;5053289;28;20025;-54
2023/01/02 10:53:38;;;;;;;18.73;16.52;;;;;;;;;;5052361;28;20108;-52
2023/01/02 10:56:16;;;;;;;18.95;15.80;;;;;;;;;;5052586;28;20072;-59
2023/01/02 10:58:46;;;;;;;18.23;16.23;;;;;;;;;;5023770;28;20040;-57
2023/01/02 11:01:17;;;;;;;18.88;16.88;;;;;;;;;;5027244;28;20490;-58
2023/01/02 11:03:44;;;;;;;18.13;15.65;;;;;;;;;;5024589;28;20025;-57
2023/01/02 11:06:30;;;;;;;18.00;14.77;;;;;;;;;;5014731;28;20490;-59
2023/01/02 11:08:59;;;;;;;20.20;14.30;;;;;;;;;;5014017;28;20491;-56
2023/01/02 11:11:26;;;;;;;19.42;15.85;;;;;;;;;;5013461;28;20025;-54
2023/01/02 11:13:54;;;;;;;17.60;14.73;;;;;;;;;;5012842;28;20075;-55
2023/01/02 11:16:21;;;;;;;17.65;14.55;;;;;;;;;;5013500;28;20483;-55
2023/01/02 11:18:52;;;;;;;17.83;14.80;;;;;;;;;;5012968;28;20081;-56
2023/01/02 11:21:24;;;;;;;16.83;13.45;;;;;;;;;;5011004;28;20134;-54
2023/01/02 11:23:56;;;;;;;17.67;14.18;;;;;;;;;;5012973;28;20049;-55
2023/01/02 11:26:23;;;;;;;16.92;13.70;;;;;;;;;;5033091;28;20386;-56
2023/01/02 11:28:51;;;;;;;16.27;12.57;;;;;;;;;;5032675;28;20116;-57
2023/01/02 11:31:17;;;;;;;16.23;12.10;;;;;;;;;;5032800;28;20029;-61
2023/01/02 11:33:44;;;;;;;18.00;12.38;;;;;;;;;;5030736;28;20450;-60
2023/01/02 11:36:10;;;;;;;15.93;11.25;;;;;;;;;;5032773;28;20029;-57
2023/01/02 11:38:59;;;;;;;15.93;11.60;;;;;;;;;;5032672;28;20027;-55
2023/01/02 11:44:37;;;;;;;15.60;11.68;;;;;;;;;;5032024;28;20048;-57
2023/01/02 11:47:03;;;;;;;16.20;11.77;;;;;;;;;;4995751;28;20042;-57
2023/01/02 11:49:55;;;;;;;18.02;12.15;;;;;;;;;;5032523;28;20028;-54
2023/01/02 11:52:25;;;;;;;16.23;12.18;;;;;;;;;;5030040;28;20030;-60
2023/01/02 11:54:54;;;;;;;16.63;12.30;;;;;;;;;;5031213;28;20014;-59
2023/01/02 11:57:20;;;;;;;;;;;;;;;;;;5032686;28;20367;-57
2023/01/02 11:59:48;;;;;;;17.10;12.23;;;;;;;;;;5032361;28;19992;-59
2023/01/02 12:02:14;;;;;;;16.55;12.25;;;;;;;;;;5032204;28;20104;-55
2023/01/02 12:04:40;;;;;;;16.65;12.68;;;;;;;;;;5030253;28;20036;-57
2023/01/02 12:07:15;;;;;;;15.60;10.90;;;;;;;;;;5031818;28;20029;-54
2023/01/02 12:09:44;;;;;;;16.25;10.82;;;;;;;;;;5031912;28;20025;-56
2023/01/02 12:12:20;;;;;;;15.93;11.20;;;;;;;;;;5031919;28;20088;-60
2023/01/02 12:14:49;;;;;;;16.63;11.05;;;;;;;;;;5030484;28;20144;-55
2023/01/02 12:17:22;;;;;;;15.55;10.43;;;;;;;;;;5031606;28;20087;-55
2023/01/02 12:19:54;;;;;;;16.08;10.27;;;;;;;;;;5031838;28;20031;-54
2023/01/02 12:22:30;;;;;;;15.20;9.35;;;;;;;;;;5030694;28;20548;-55
2023/01/02 12:25:15;;;;;;;15.75;10.15;;;;;;;;;;5044560;23;20408;-58
2023/01/02 12:27:41;;;;;;;16.33;10.30;;;;;;;;;;5031680;28;20065;-61
2023/01/02 12:30:09;;;;;;;17.05;9.88;;;;;;;;;;5031471;28;20028;-60
2023/01/02 12:32:51;;;;;;;15.63;9.65;;;;;;;;;;5031582;28;20381;-63
2023/01/02 12:35:26;;;;;;;16.35;9.80;;;;;;;;;;5010799;28;20401;-62
2023/01/02 12:37:52;;;;;;;14.68;9.32;;;;;;;;;;5011560;28;20033;-63
2023/01/02 12:40:18;;;;;;;15.90;10.05;;;;;;;;;;5011612;28;20034;-63
2023/01/02 12:42:44;;;;;;;14.90;9.23;;;;;;;;;;5011188;28;20034;-62
2023/01/02 12:45:16;;;;;;;15.38;9.77;;;;;;;;;;5010374;28;20029;-63
2023/01/02 12:47:50;;;;;;;16.45;9.75;;;;;;;;;;5011018;28;20037;-63
2023/01/02 12:50:39;;;;;;;16.83;10.23;;;;;;;;;;5011484;28;20179;-59
2023/01/02 12:53:21;;;;;;;17.63;9.90;;;;;;;;;;5010813;28;20398;-60
2023/01/02 12:56:06;;;;;;;16.58;9.98;;;;;;;;;;5011558;28;20040;-62
2023/01/02 12:58:51;;;;;;;15.60;9.70;;;;;;;;;;5010280;28;20555;-62
2023/01/02 13:01:25;;;;;;;15.48;9.15;;;;;;;;;;5011141;28;20033;-63
2023/01/02 13:04:03;;;;;;;15.73;8.63;;;;;;;;;;5010453;28;20113;-63
2023/01/02 13:06:38;;;;;;;15.50;9.15;;;;;;;;;;5011400;28;20026;-63
2023/01/02 13:09:23;;;;;;;15.68;9.45;;;;;;;;;;5011488;28;20053;-62
2023/01/02 13:11:58;;;;;;;17.42;9.43;;;;;;;;;;5010191;28;20032;-62
2023/01/02 13:14:27;;;;;;;15.27;9.02;;;;;;;;;;5010624;28;20038;-63
2023/01/02 13:16:57;;;;;;;16.05;9.15;;;;;;;;;;5011114;28;20018;-61
2023/01/02 13:19:32;;;;;;;19.83;9.25;;;;;;;;;;5011004;28;20076;-62
2023/01/02 13:22:01;;;;;;;16.38;9.55;;;;;;;;;;4997390;28;20053;-63
2023/01/02 13:24:28;;;;;;;17.08;9.88;;;;;;;;;;4996032;28;20505;-61
2023/01/02 13:26:55;;;;;;;18.42;9.73;;;;;;;;;;5013005;28;20049;-64
2023/01/02 13:29:26;;;;;;;17.60;9.98;;;;;;;;;;5015051;28;20014;-60
2023/01/02 13:31:54;;;;;;;18.40;10.10;;;;;;;;;;5015261;28;20096;-64
2023/01/02 13:34:20;;;;;;;16.38;9.88;;;;;;;;;;5014275;28;20022;-64
2023/01/02 13:36:46;;;;;;;16.73;9.45;;;;;;;;;;5014942;28;20022;-63
2023/01/02 13:39:15;;;;;;;15.30;9.20;;;;;;;;;;5015078;28;20401;-63
2023/01/02 13:44:48;;;;;;;17.50;9.98;;;;;;;;;;5013590;28;20334;-63
2023/01/02 13:47:14;;;;;;;16.80;10.30;;;;;;;;;;5014129;28;20025;-65
2023/01/02 13:49:40;;;;;;;16.58;10.00;;;;;;;;;;5013842;28;20474;-64
2023/01/02 13:52:13;;;;;;;17.58;10.50;;;;;;;;;;5028934;28;20026;-64
2023/01/02 13:54:39;;;;;;;16.45;10.07;;;;;;;;;;5028122;28;20033;-64
2023/01/02 13:57:24;;;;;;;16.45;10.20;;;;;;;;;;5013082;28;20509;-62
2023/01/02 13:59:56;;;;;;;16.00;10.18;;;;;;;;;;4993220;28;20026;-61
2023/01/02 14:02:23;;;;;;;16.25;10.15;;;;;;;;;;4991645;28;20041;-62
2023/01/02 14:04:49;;;;;;;16.67;9.35;;;;;;;;;;4992579;28;20098;-58
2023/01/02 14:07:24;;;;;;;17.25;10.73;;;;;;;;;;4993555;28;20375;-59
2023/01/02 14:10:13;;;;;;;15.35;9.27;;;;;;;;;;4994464;28;20038;-60
2023/01/02 14:12:53;;;;;;;15.93;9.48;;;;;;;;;;4986057;28;20036;-60
2023/01/02 14:15:23;;;;;;;15.27;8.65;;;;;;;;;;5003126;28;20029;-58
2023/01/02 14:18:02;;;;;;;16.75;9.90;;;;;;;;;;5028296;28;20195;-59
2023/01/02 14:20:55;;;;;;;16.15;9.50;;;;;;;;;;5013238;28;20367;-63
2023/01/02 14:23:33;;;;;;;17.38;9.32;;;;;;;;;;5011571;28;20205;-62
2023/01/02 14:25:59;;;;;;;19.50;9.85;;;;;;;;;;5014148;28;20033;-60
2023/01/02 14:28:29;;;;;;;15.43;10.10;;;;;;;;;;5013500;28;20034;-56
2023/01/02 14:30:56;;;;;;;17.65;10.15;;;;;;;;;;5014705;28;20021;-63
2023/01/02 14:33:30;;;;;;;19.98;11.50;;;;;;;;;;5012130;28;20164;-60
2023/01/02 14:35:59;;;;;;;16.83;10.82;;;;;;;;;;5013062;28;20030;-62
2023/01/02 14:38:27;;;;;;;16.30;10.27;;;;;;;;;;5011523;28;20499;-60
2023/01/02 14:43:28;;;;;;;16.75;10.73;;;;;;;;;;5013380;28;20037;-61